createdAt,value
2019-05-12T00:02:03.342Z,82.93
2019-05-12T00:04:34.661Z,82.23
2019-05-12T00:07:05.832Z,82.64
2019-05-12T00:09:38.807Z,83.25
2019-05-12T00:12:09.916Z,82.95
2019-05-12T00:14:41.258Z,81.78
2019-05-12T00:17:12.592Z,82.78
2019-05-12T00:19:43.547Z,82.35
2019-05-12T00:22:18.066Z,82.35
2019-05-12T00:24:49.626Z,82.20
2019-05-12T00:27:23.502Z,82.05
2019-05-12T00:29:57.799Z,82.25
2019-05-12T00:32:29.640Z,82.57
2019-05-12T00:35:01.202Z,83.23
2019-05-12T00:37:32.328Z,82.10
2019-05-12T00:40:03.983Z,83.11
2019-05-12T00:42:35.096Z,83.63
2019-05-12T00:45:08.378Z,83.21
2019-05-12T00:47:40.699Z,82.80
2019-05-12T00:50:11.974Z,83.38
2019-05-12T00:52:43.286Z,83.34
2019-05-12T00:55:14.735Z,82.93
2019-05-12T00:57:45.837Z,82.78
2019-05-12T01:00:17.890Z,82.72
2019-05-12T01:02:49.009Z,82.67
2019-05-12T01:05:20.133Z,82.86
2019-05-12T01:07:51.329Z,82.56
2019-05-12T01:10:23.423Z,82.30
2019-05-12T01:12:54.738Z,82.23
2019-05-12T01:15:28.607Z,82.20
2019-05-12T01:18:03.218Z,81.96
2019-05-12T01:20:35.519Z,82.58
2019-05-12T01:23:08.927Z,83.33
2019-05-12T01:25:41.298Z,84.28
2019-05-12T01:28:13.698Z,83.98
2019-05-12T01:30:47.925Z,85.55
2019-05-12T01:33:20.363Z,84.96
2019-05-12T01:35:51.822Z,84.25
2019-05-12T01:38:23.340Z,85.18
2019-05-12T01:40:55.284Z,85.35
2019-05-12T01:43:27.758Z,85.50
2019-05-12T01:46:00.054Z,84.46
2019-05-12T01:48:32.179Z,86.14
2019-05-12T01:51:03.832Z,85.72
2019-05-12T01:53:37.628Z,85.43
2019-05-12T01:56:08.099Z,85.46
2019-05-12T01:58:39.277Z,85.50
2019-05-12T02:01:12.182Z,84.62
2019-05-12T02:03:43.110Z,85.37
2019-05-12T02:06:14.667Z,84.91
2019-05-12T02:08:47.854Z,85.46
2019-05-12T02:11:20.792Z,85.77
2019-05-12T02:13:52.506Z,84.58
2019-05-12T02:16:23.998Z,85.32
2019-05-12T02:18:55.136Z,84.81
2019-05-12T02:21:28.056Z,84.63
2019-05-12T02:23:59.344Z,84.14
2019-05-12T02:26:30.354Z,85.26
2019-05-12T02:29:01.987Z,84.92
2019-05-12T02:31:33.462Z,85.72
2019-05-12T02:34:05.706Z,85.40
2019-05-12T02:36:36.657Z,85.43
2019-05-12T02:39:08.784Z,84.99
2019-05-12T02:41:40.257Z,84.87
2019-05-12T02:44:14.603Z,85.38
2019-05-12T02:46:44.747Z,86.20
2019-05-12T02:49:15.990Z,85.62
2019-05-12T02:51:48.582Z,86.81
2019-05-12T02:54:24.987Z,85.75
2019-05-12T02:56:55.500Z,85.15
2019-05-12T02:59:29.749Z,85.14
2019-05-12T03:02:05.184Z,85.70
2019-05-12T03:04:36.442Z,85.12
2019-05-12T03:07:07.691Z,85.34
2019-05-12T03:09:39.935Z,85.13
2019-05-12T03:12:14.276Z,85.53
2019-05-12T03:14:44.926Z,85.78
2019-05-12T03:17:16.060Z,86.19
2019-05-12T03:19:47.554Z,86.37
2019-05-12T03:22:20.159Z,87.19
2019-05-12T03:25:07.749Z,87.25
2019-05-12T03:27:25.626Z,87.40
2019-05-12T03:29:57.054Z,88.15
2019-05-12T03:32:28.870Z,88.57
2019-05-12T03:35:00.319Z,89.50
2019-05-12T03:37:31.596Z,88.98
2019-05-12T03:40:05.418Z,89.26
2019-05-12T03:42:36.058Z,90.38
2019-05-12T03:45:07.539Z,90.19
2019-05-12T03:47:38.867Z,90.70
2019-05-12T03:50:10.580Z,90.05
2019-05-12T03:52:44.950Z,89.15
2019-05-12T03:55:30.203Z,90.00
2019-05-12T03:57:49.069Z,89.59
2019-05-12T04:00:24.492Z,90.21
2019-05-12T04:02:55.524Z,89.88
2019-05-12T04:05:27.208Z,90.25
2019-05-12T04:07:58.819Z,89.72
2019-05-12T04:10:30.743Z,90.64
2019-05-12T04:13:04.492Z,90.87
2019-05-12T04:15:35.894Z,90.55
2019-05-12T04:18:07.268Z,89.89
2019-05-12T04:20:38.779Z,90.02
2019-05-12T04:23:10.219Z,90.47
2019-05-12T04:25:54.825Z,90.74
2019-05-12T04:28:15.254Z,91.61
2019-05-12T04:30:46.676Z,91.70
2019-05-12T04:33:17.931Z,91.07
2019-05-12T04:35:49.656Z,91.17
2019-05-12T04:38:20.661Z,91.11
2019-05-12T04:40:55.073Z,91.23
2019-05-12T04:43:25.749Z,91.69
2019-05-12T04:45:57.599Z,91.91
2019-05-12T04:48:28.839Z,92.30
2019-05-12T04:51:01.385Z,92.12
2019-05-12T04:53:35.246Z,91.91
2019-05-12T04:56:15.636Z,92.02
2019-05-12T04:58:39.696Z,91.79
2019-05-12T05:01:10.981Z,91.71
2019-05-12T05:03:44.297Z,91.45
2019-05-12T05:06:15.390Z,91.44
2019-05-12T05:08:46.469Z,91.91
2019-05-12T05:11:17.698Z,91.94
2019-05-12T05:13:49.038Z,92.74
2019-05-12T05:16:19.796Z,92.38
2019-05-12T05:18:51.147Z,91.82
2019-05-12T05:21:24.032Z,92.67
2019-05-12T05:23:55.746Z,91.74
2019-05-12T05:26:28.295Z,92.42
2019-05-12T05:28:59.395Z,92.35
2019-05-12T05:31:30.592Z,91.99
2019-05-12T05:34:04.839Z,92.11
2019-05-12T05:36:36.589Z,92.07
2019-05-12T05:39:08.877Z,92.13
2019-05-12T05:41:46.611Z,92.27
2019-05-12T05:44:13.955Z,92.42
2019-05-12T05:46:49.998Z,92.52
2019-05-12T05:49:19.500Z,92.28
2019-05-12T05:51:55.115Z,92.68
2019-05-12T05:54:31.456Z,93.31
2019-05-12T05:56:59.696Z,92.93
2019-05-12T05:59:31.691Z,93.05
2019-05-12T06:02:04.711Z,93.10
2019-05-12T06:04:39.256Z,93.32
2019-05-12T06:07:08.345Z,93.31
2019-05-12T06:09:39.546Z,93.76
2019-05-12T06:12:10.994Z,93.76
2019-05-12T06:14:46.739Z,93.84
2019-05-12T06:17:15.500Z,93.71
2019-05-12T06:19:46.631Z,93.61
2019-05-12T06:22:18.571Z,94.01
2019-05-12T06:24:56.967Z,94.20
2019-05-12T06:27:24.339Z,94.29
2019-05-12T06:30:00.822Z,93.96
2019-05-12T06:32:29.150Z,93.94
2019-05-12T06:35:03.898Z,94.33
2019-05-12T06:37:33.930Z,94.25
2019-05-12T06:40:06.949Z,94.38
2019-05-12T06:42:38.238Z,94.18
2019-05-12T06:45:10.191Z,93.86
2019-05-12T06:47:45.300Z,94.21
2019-05-12T06:50:14.831Z,94.58
2019-05-12T06:52:49.009Z,94.58
2019-05-12T06:55:19.437Z,95.05
2019-05-12T06:57:50.887Z,94.83
2019-05-12T07:00:30.827Z,94.97
2019-05-12T07:02:55.513Z,94.33
2019-05-12T07:05:28.090Z,94.23
2019-05-12T07:08:00.909Z,94.39
2019-05-12T07:10:42.622Z,94.61
2019-05-12T07:13:06.125Z,94.97
2019-05-12T07:15:40.271Z,94.92
2019-05-12T07:18:14.091Z,95.33
2019-05-12T07:20:44.454Z,95.24
2019-05-12T07:23:19.583Z,94.81
2019-05-12T07:25:49.025Z,94.85
2019-05-12T07:28:20.591Z,94.97
2019-05-12T07:30:54.345Z,95.16
2019-05-12T07:33:25.991Z,94.73
2019-05-12T07:36:01.345Z,94.59
2019-05-12T07:38:34.385Z,94.49
2019-05-12T07:41:10.538Z,94.28
2019-05-12T07:43:40.626Z,94.41
2019-05-12T07:46:13.444Z,94.30
2019-05-12T07:48:48.955Z,93.99
2019-05-12T07:51:17.700Z,94.50
2019-05-12T07:53:57.231Z,94.77
2019-05-12T07:56:25.923Z,94.46
2019-05-12T07:58:57.242Z,94.55
2019-05-12T08:01:28.110Z,93.95
2019-05-12T08:04:01.424Z,93.94
2019-05-12T08:06:41.305Z,94.38
2019-05-12T08:09:07.997Z,94.04
2019-05-12T08:11:39.970Z,94.17
2019-05-12T08:14:13.856Z,94.21
2019-05-12T08:16:43.869Z,94.50
2019-05-12T08:19:24.020Z,94.18
2019-05-12T08:21:49.141Z,94.19
2019-05-12T08:24:20.501Z,93.81
2019-05-12T08:26:59.746Z,94.16
2019-05-12T08:29:24.580Z,93.87
2019-05-12T08:31:55.901Z,94.28
2019-05-12T08:34:27.121Z,94.28
2019-05-12T08:36:58.243Z,94.46
2019-05-12T08:39:29.303Z,94.05
2019-05-12T08:42:00.659Z,94.16
2019-05-12T08:44:38.471Z,93.51
2019-05-12T08:47:04.422Z,93.22
2019-05-12T08:49:49.733Z,92.68
2019-05-12T08:52:08.023Z,93.81
2019-05-12T08:54:39.573Z,94.26
2019-05-12T08:57:14.184Z,94.14
2019-05-12T08:59:44.265Z,94.11
2019-05-12T09:02:15.443Z,93.79
2019-05-12T09:04:51.253Z,92.73
2019-05-12T09:07:21.459Z,93.21
2019-05-12T09:09:53.412Z,93.54
2019-05-12T09:12:25.121Z,93.28
2019-05-12T09:14:56.071Z,93.63
2019-05-12T09:17:26.761Z,94.00
2019-05-12T09:20:03.641Z,92.80
2019-05-12T09:22:31.031Z,93.47
2019-05-12T09:25:04.281Z,92.44
2019-05-12T09:27:39.548Z,92.96
2019-05-12T09:30:24.203Z,92.81
2019-05-12T09:32:56.108Z,93.09
2019-05-12T09:35:33.570Z,93.23
2019-05-12T09:38:03.669Z,92.62
2019-05-12T09:40:43.978Z,91.49
2019-05-12T09:43:15.839Z,93.11
2019-05-12T09:45:51.468Z,92.81
2019-05-12T09:48:19.317Z,92.99
2019-05-12T09:50:51.545Z,92.64
2019-05-12T09:53:23.680Z,94.07
2019-05-12T09:55:54.605Z,92.60
2019-05-12T09:58:36.382Z,92.10
2019-05-12T10:01:09.641Z,92.34
2019-05-12T10:03:44.664Z,92.16
2019-05-12T10:06:18.051Z,92.22
2019-05-12T10:08:54.921Z,93.43
2019-05-12T10:11:29.411Z,92.31
2019-05-12T10:14:05.377Z,91.66
2019-05-12T10:16:33.436Z,92.55
2019-05-12T10:19:04.268Z,92.75
2019-05-12T10:21:36.054Z,92.99
2019-05-12T10:24:07.384Z,92.53
2019-05-12T10:26:41.259Z,91.75
2019-05-12T10:29:19.632Z,93.62
2019-05-12T10:31:44.590Z,93.55
2019-05-12T10:34:17.145Z,92.30
2019-05-12T10:36:49.342Z,93.13
2019-05-12T10:39:21.204Z,92.23
2019-05-12T10:41:53.954Z,91.80
2019-05-12T10:44:30.229Z,91.18
2019-05-12T10:46:58.685Z,89.74
2019-05-12T10:49:29.864Z,90.00
2019-05-12T10:52:00.821Z,89.99
2019-05-12T10:54:34.091Z,89.31
2019-05-12T10:57:05.085Z,89.79
2019-05-12T10:59:38.853Z,90.11
2019-05-12T11:02:09.258Z,89.13
2019-05-12T11:04:41.262Z,89.94
2019-05-12T11:07:13.592Z,89.85
2019-05-12T11:09:45.261Z,89.76
2019-05-12T11:12:19.109Z,89.43
2019-05-12T11:14:48.900Z,89.22
2019-05-12T11:17:19.582Z,88.38
2019-05-12T11:19:53.644Z,89.92
2019-05-12T11:22:23.111Z,87.20
2019-05-12T11:24:55.853Z,86.94
2019-05-12T11:27:26.901Z,88.46
2019-05-12T11:29:57.986Z,87.29
2019-05-12T11:32:34.029Z,87.59
2019-05-12T11:35:03.955Z,85.76
2019-05-12T11:37:34.026Z,87.73
2019-05-12T11:40:06.323Z,87.81
2019-05-12T11:42:37.256Z,86.68
2019-05-12T11:45:08.843Z,88.29
2019-05-12T11:47:40.052Z,89.44
2019-05-12T11:50:10.279Z,87.48
2019-05-12T11:52:41.153Z,85.79
2019-05-12T11:55:13.353Z,85.70
2019-05-12T11:57:43.769Z,86.49
2019-05-12T12:00:15.375Z,85.54
2019-05-12T12:02:45.485Z,86.47
2019-05-12T12:05:16.156Z,83.71
2019-05-12T12:07:50.768Z,86.37
2019-05-12T12:10:18.321Z,83.46
2019-05-12T12:12:49.430Z,85.36
2019-05-12T12:15:26.345Z,85.90
2019-05-12T12:17:53.476Z,83.91
2019-05-12T12:20:24.379Z,85.79
2019-05-12T12:22:54.732Z,81.61
2019-05-12T12:25:26.290Z,83.88
2019-05-12T12:27:56.121Z,84.12
2019-05-12T12:30:26.198Z,82.63
2019-05-12T12:33:00.279Z,82.74
2019-05-12T12:35:29.337Z,81.27
2019-05-12T12:37:59.630Z,83.06
2019-05-12T12:40:29.722Z,84.98
2019-05-12T12:42:59.584Z,85.03
2019-05-12T12:45:40.591Z,82.31
2019-05-12T12:48:19.269Z,81.45
2019-05-12T12:50:45.711Z,81.10
2019-05-12T12:53:15.736Z,79.73
2019-05-12T12:55:45.801Z,80.41
2019-05-12T12:58:21.055Z,80.14
2019-05-12T13:00:53.647Z,82.34
2019-05-12T13:03:25.751Z,80.68
2019-05-12T13:05:54.276Z,80.62
2019-05-12T13:08:24.951Z,82.09
2019-05-12T13:10:56.365Z,81.51
2019-05-12T13:13:26.836Z,82.39
2019-05-12T13:15:57.759Z,78.51
2019-05-12T13:18:33.182Z,79.28
2019-05-12T13:21:03.220Z,80.92
2019-05-12T13:23:40.006Z,79.04
2019-05-12T13:26:05.998Z,78.43
2019-05-12T13:28:36.774Z,79.36
2019-05-12T13:31:15.280Z,80.75
2019-05-12T13:33:44.259Z,80.52
2019-05-12T13:36:16.450Z,81.51
2019-05-12T13:38:46.975Z,79.37
2019-05-12T13:41:20.059Z,79.38
2019-05-12T13:43:56.228Z,80.24
2019-05-12T13:46:25.133Z,79.60
2019-05-12T13:48:59.687Z,80.31
2019-05-12T13:51:28.019Z,79.46
2019-05-12T13:53:58.637Z,78.36
2019-05-12T13:56:33.101Z,78.01
2019-05-12T13:59:01.254Z,75.70
2019-05-12T14:01:40.008Z,73.64
2019-05-12T14:04:06.699Z,73.00
2019-05-12T14:06:37.951Z,76.08
2019-05-12T14:09:10.119Z,73.87
2019-05-12T14:11:43.735Z,75.35
2019-05-12T14:14:15.357Z,75.75
2019-05-12T14:16:57.375Z,74.16
2019-05-12T14:19:23.320Z,72.93
2019-05-12T14:21:54.267Z,69.70
2019-05-12T14:24:24.757Z,70.41
2019-05-12T14:26:55.204Z,71.66
2019-05-12T14:29:30.459Z,70.39
2019-05-12T14:32:02.389Z,69.34
2019-05-12T14:34:33.961Z,70.17
2019-05-12T14:37:10.231Z,68.88
2019-05-12T14:39:46.210Z,70.16
2019-05-12T14:42:14.722Z,69.23
2019-05-12T14:44:49.649Z,69.70
2019-05-12T14:47:27.963Z,68.35
2019-05-12T14:49:54.286Z,70.19
2019-05-12T14:52:27.400Z,68.94
2019-05-12T14:54:58.790Z,70.47
2019-05-12T14:57:37.414Z,68.78
2019-05-12T15:00:11.365Z,68.73
2019-05-12T15:02:43.829Z,69.00
2019-05-12T15:05:15.951Z,67.67
2019-05-12T15:07:53.758Z,68.21
2019-05-12T15:10:23.437Z,66.45
2019-05-12T15:12:54.902Z,66.36
2019-05-12T15:15:28.117Z,69.15
2019-05-12T15:18:03.124Z,65.39
2019-05-12T15:20:33.213Z,67.48
2019-05-12T15:23:06.169Z,65.83
2019-05-12T15:25:38.540Z,63.59
2019-05-12T15:28:10.397Z,62.72
2019-05-12T15:30:43.610Z,62.97
2019-05-12T15:33:15.732Z,64.60
2019-05-12T15:35:48.129Z,63.63
2019-05-12T15:38:20.426Z,63.83
2019-05-12T15:40:53.779Z,64.85
2019-05-12T15:43:25.679Z,63.26
2019-05-12T15:45:59.706Z,64.51
2019-05-12T15:48:34.214Z,67.42
2019-05-12T15:51:08.581Z,65.32
2019-05-12T15:53:39.189Z,65.15
2019-05-12T15:56:21.039Z,65.21
2019-05-12T15:58:47.114Z,65.30
2019-05-12T16:01:20.010Z,64.84
2019-05-12T16:03:54.322Z,65.11
2019-05-12T16:06:26.174Z,65.98
2019-05-12T16:08:59.142Z,64.50
2019-05-12T16:11:30.833Z,68.01
2019-05-12T16:14:04.093Z,66.49
2019-05-12T16:16:42.875Z,66.22
2019-05-12T16:19:15.475Z,66.64
2019-05-12T16:21:46.740Z,66.57
2019-05-12T16:24:18.626Z,67.37
2019-05-12T16:26:51.958Z,67.99
2019-05-12T16:29:27.299Z,69.24
2019-05-12T16:31:58.438Z,67.98
2019-05-12T16:34:29.651Z,66.87
2019-05-12T16:37:01.002Z,67.78
2019-05-12T16:39:37.175Z,68.34
2019-05-12T16:42:10.421Z,67.37
2019-05-12T16:44:38.579Z,68.43
2019-05-12T16:47:27.269Z,67.82
2019-05-12T16:50:15.656Z,68.71
2019-05-12T16:52:41.898Z,69.11
2019-05-12T16:55:13.170Z,68.91
2019-05-12T16:57:51.655Z,69.22
2019-05-12T17:00:17.384Z,69.61
2019-05-12T17:02:53.695Z,69.79
2019-05-12T17:05:24.012Z,70.36
2019-05-12T17:07:55.875Z,71.22
2019-05-12T17:10:28.765Z,69.11
2019-05-12T17:13:00.020Z,69.78
2019-05-12T17:15:31.242Z,71.16
2019-05-12T17:18:04.331Z,71.63
2019-05-12T17:20:45.862Z,70.70
2019-05-12T17:23:13.842Z,72.67
2019-05-12T17:25:45.395Z,71.01
2019-05-12T17:28:16.467Z,71.67
2019-05-12T17:30:47.572Z,71.94
2019-05-12T17:33:22.934Z,73.50
2019-05-12T17:35:53.319Z,73.40
2019-05-12T17:38:26.373Z,74.20
2019-05-12T17:41:00.655Z,73.92
2019-05-12T17:43:33.689Z,73.64
2019-05-12T17:46:04.555Z,76.22
2019-05-12T17:48:42.411Z,77.98
2019-05-12T17:51:10.464Z,78.45
2019-05-12T17:53:43.419Z,79.77
2019-05-12T17:56:16.051Z,80.22
2019-05-12T17:58:47.713Z,80.33
2019-05-12T18:01:23.162Z,80.56
2019-05-12T18:03:53.558Z,80.49
2019-05-12T18:06:26.916Z,79.74
2019-05-12T18:09:00.281Z,81.03
2019-05-12T18:11:33.963Z,81.77
2019-05-12T18:14:07.255Z,81.69
2019-05-12T18:16:38.586Z,81.62
2019-05-12T18:19:17.673Z,82.19
2019-05-12T18:21:45.138Z,82.72
2019-05-12T18:24:17.286Z,82.60
2019-05-12T18:26:56.638Z,81.78
2019-05-12T18:29:26.621Z,82.01
2019-05-12T18:31:57.998Z,82.18
2019-05-12T18:34:35.376Z,82.67
2019-05-12T18:37:07.047Z,82.90
2019-05-12T18:39:40.052Z,82.96
2019-05-12T18:42:13.944Z,83.29
2019-05-12T18:44:44.995Z,83.74
2019-05-12T18:47:17.210Z,83.08
2019-05-12T18:49:50.240Z,82.90
2019-05-12T18:52:23.606Z,83.22
2019-05-12T18:54:57.268Z,83.12
2019-05-12T18:57:28.109Z,82.89
2019-05-12T19:00:04.051Z,83.95
2019-05-12T19:02:33.502Z,83.86
2019-05-12T19:05:06.408Z,84.13
2019-05-12T19:07:40.012Z,84.85
2019-05-12T19:10:09.912Z,84.55
2019-05-12T19:12:44.260Z,84.00
2019-05-12T19:15:37.910Z,83.71
2019-05-12T19:18:09.486Z,83.89
2019-05-12T19:20:44.034Z,84.37
2019-05-12T19:23:16.389Z,84.37
2019-05-12T19:25:47.668Z,84.82
2019-05-12T19:28:18.589Z,84.66
2019-05-12T19:30:50.445Z,84.63
2019-05-12T19:33:22.905Z,84.71
2019-05-12T19:35:59.801Z,85.11
2019-05-12T19:38:28.155Z,85.09
2019-05-12T19:41:04.468Z,84.92
2019-05-12T19:43:39.171Z,85.14
2019-05-12T19:46:08.258Z,84.89
2019-05-12T19:48:49.940Z,84.76
2019-05-12T19:51:25.559Z,85.17
2019-05-12T19:53:53.671Z,85.48
2019-05-12T19:56:24.600Z,85.28
2019-05-12T19:58:55.905Z,85.41
2019-05-12T20:01:32.982Z,84.82
2019-05-12T20:03:59.340Z,84.85
2019-05-12T20:06:30.648Z,85.20
2019-05-12T20:09:06.863Z,84.82
2019-05-12T20:11:33.999Z,84.97
2019-05-12T20:14:04.710Z,85.48
2019-05-12T20:16:35.461Z,85.82
2019-05-12T20:19:06.923Z,85.65
2019-05-12T20:21:48.379Z,85.31
2019-05-12T20:24:29.319Z,85.67
2019-05-12T20:27:04.096Z,86.43
2019-05-12T20:29:43.411Z,86.37
2019-05-12T20:32:29.757Z,86.43
2019-05-12T20:35:08.677Z,87.25
2019-05-12T20:37:52.974Z,87.79
2019-05-12T20:40:20.324Z,88.18
2019-05-12T20:43:07.377Z,87.25
2019-05-12T20:45:26.065Z,87.33
2019-05-12T20:47:57.851Z,86.99
2019-05-12T20:50:38.666Z,87.12
2019-05-12T20:53:03.842Z,86.93
2019-05-12T20:55:41.196Z,86.86
2019-05-12T20:58:08.567Z,86.74
2019-05-12T21:00:45.418Z,86.53
2019-05-12T21:03:27.243Z,86.31
2019-05-12T21:06:06.719Z,86.40
2019-05-12T21:08:37.880Z,86.43
2019-05-12T21:11:09.398Z,86.05
2019-05-12T21:13:43.794Z,86.34
2019-05-12T21:16:19.530Z,86.76
2019-05-12T21:18:55.845Z,86.90
2019-05-12T21:21:27.652Z,86.83
2019-05-12T21:23:59.127Z,87.16
2019-05-12T21:26:28.452Z,87.19
2019-05-12T21:29:01.479Z,87.48
2019-05-12T21:31:33.758Z,87.79
2019-05-12T21:34:06.840Z,87.58
2019-05-12T21:36:38.358Z,87.41
2019-05-12T21:39:10.562Z,87.96
2019-05-12T21:41:47.390Z,88.17
2019-05-12T21:44:17.577Z,88.25
2019-05-12T21:46:58.942Z,87.79
2019-05-12T21:49:25.134Z,87.82
2019-05-12T21:52:02.969Z,87.35
2019-05-12T21:54:36.182Z,87.41
2019-05-12T21:57:04.434Z,87.46
2019-05-12T21:59:39.513Z,87.23
2019-05-12T22:02:09.863Z,84.85
2019-05-12T22:04:42.847Z,83.21
2019-05-12T22:07:15.248Z,80.43
2019-05-12T22:09:47.235Z,79.88
2019-05-12T22:12:23.490Z,79.56
2019-05-12T22:14:54.278Z,78.93
2019-05-12T22:17:28.346Z,77.51
2019-05-12T22:20:00.052Z,76.51
2019-05-12T22:22:33.218Z,75.79
2019-05-12T22:25:09.724Z,74.62
2019-05-12T22:27:39.761Z,74.58
2019-05-12T22:30:13.347Z,74.67
2019-05-12T22:32:44.255Z,74.97
2019-05-12T22:35:21.775Z,74.60
2019-05-12T22:37:48.860Z,74.86
2019-05-12T22:40:23.458Z,74.46
2019-05-12T22:42:59.286Z,74.70
2019-05-12T22:45:27.412Z,74.13
2019-05-12T22:47:59.240Z,74.24
2019-05-12T22:50:33.334Z,73.57
2019-05-12T22:53:04.725Z,72.77
2019-05-12T22:55:36.527Z,73.50
2019-05-12T22:58:10.735Z,73.89
2019-05-12T23:00:41.145Z,72.91
2019-05-12T23:03:14.948Z,73.37
2019-05-12T23:05:50.864Z,72.96
2019-05-12T23:08:18.946Z,72.95
2019-05-12T23:10:53.276Z,74.22
2019-05-12T23:13:24.341Z,73.59
2019-05-12T23:15:56.008Z,74.84
2019-05-12T23:18:30.719Z,73.98
2019-05-12T23:21:03.934Z,74.75
2019-05-12T23:23:34.096Z,75.53
2019-05-12T23:26:05.377Z,74.14
2019-05-12T23:28:40.522Z,75.25
2019-05-12T23:31:09.856Z,77.08
2019-05-12T23:33:44.154Z,76.11
2019-05-12T23:36:17.809Z,77.09
2019-05-12T23:38:51.950Z,77.34
2019-05-12T23:41:20.239Z,75.63
2019-05-12T23:43:53.649Z,76.11
2019-05-12T23:46:24.965Z,77.39
2019-05-12T23:48:57.547Z,76.82
2019-05-12T23:51:29.095Z,77.08
2019-05-12T23:54:00.776Z,77.77
2019-05-12T23:56:33.703Z,77.30
2019-05-12T23:59:05.577Z,77.32
